sensor_id;sensor_type;location;lat;lon;timestamp;pressure;altitude;pressure_sealevel;temperature;humidity
21182;BME280;10749;46.296;7.524;2023-07-22T00:05:07;94826.34;;;22.71;42.67
21182;BME280;10749;46.296;7.524;2023-07-22T00:07:33;94827.22;;;22.76;41.59
21182;BME280;10749;46.296;7.524;2023-07-22T00:09:59;94823.97;;;22.74;41.42
21182;BME280;10749;46.296;7.524;2023-07-22T00:12:24;94828.19;;;22.65;41.10
21182;BME280;10749;46.296;7.524;2023-07-22T00:14:51;94825.16;;;22.62;41.33
21182;BME280;10749;46.296;7.524;2023-07-22T00:17:17;94817.56;;;22.59;41.33
21182;BME280;10749;46.296;7.524;2023-07-22T00:19:42;94826.50;;;22.59;41.46
21182;BME280;10749;46.296;7.524;2023-07-22T00:22:07;94819.41;;;22.53;41.15
21182;BME280;10749;46.296;7.524;2023-07-22T00:24:33;94817.16;;;22.45;41.37
21182;BME280;10749;46.296;7.524;2023-07-22T00:26:58;94810.63;;;22.36;42.07
21182;BME280;10749;46.296;7.524;2023-07-22T00:29:24;94822.53;;;22.40;41.97
21182;BME280;10749;46.296;7.524;2023-07-22T00:31:49;94821.50;;;22.46;42.70
21182;BME280;10749;46.296;7.524;2023-07-22T00:34:14;94816.16;;;22.51;42.48
21182;BME280;10749;46.296;7.524;2023-07-22T00:36:40;94818.28;;;22.49;41.98
21182;BME280;10749;46.296;7.524;2023-07-22T00:39:05;94810.91;;;22.39;41.81
21182;BME280;10749;46.296;7.524;2023-07-22T00:41:30;94810.03;;;22.34;41.84
21182;BME280;10749;46.296;7.524;2023-07-22T00:43:56;94819.16;;;22.28;41.87
21182;BME280;10749;46.296;7.524;2023-07-22T00:46:21;94822.09;;;22.26;41.67
21182;BME280;10749;46.296;7.524;2023-07-22T00:48:47;94823.41;;;22.24;41.60
21182;BME280;10749;46.296;7.524;2023-07-22T00:51:14;94820.91;;;22.17;41.87
21182;BME280;10749;46.296;7.524;2023-07-22T00:53:39;94814.69;;;22.17;42.95
21182;BME280;10749;46.296;7.524;2023-07-22T00:56:04;94815.88;;;22.26;43.25
21182;BME280;10749;46.296;7.524;2023-07-22T00:58:30;94827.78;;;22.30;43.80
21182;BME280;10749;46.296;7.524;2023-07-22T01:00:55;94817.97;;;22.19;44.00
21182;BME280;10749;46.296;7.524;2023-07-22T01:03:20;94821.84;;;22.28;44.25
21182;BME280;10749;46.296;7.524;2023-07-22T01:05:47;94826.66;;;22.26;44.12
21182;BME280;10749;46.296;7.524;2023-07-22T01:08:13;94836.00;;;22.18;44.08
21182;BME280;10749;46.296;7.524;2023-07-22T01:10:39;94829.81;;;22.18;44.47
21182;BME280;10749;46.296;7.524;2023-07-22T01:13:05;94823.28;;;22.14;44.50
21182;BME280;10749;46.296;7.524;2023-07-22T01:15:31;94823.78;;;22.11;44.78
21182;BME280;10749;46.296;7.524;2023-07-22T01:17:56;94832.34;;;22.07;45.04
21182;BME280;10749;46.296;7.524;2023-07-22T01:20:27;94831.06;;;22.10;45.66
21182;BME280;10749;46.296;7.524;2023-07-22T01:22:54;94835.63;;;22.09;45.81
21182;BME280;10749;46.296;7.524;2023-07-22T01:25:20;94837.72;;;22.02;45.17
21182;BME280;10749;46.296;7.524;2023-07-22T01:27:50;94844.47;;;22.05;44.92
21182;BME280;10749;46.296;7.524;2023-07-22T01:30:15;94845.53;;;22.04;45.52
21182;BME280;10749;46.296;7.524;2023-07-22T01:32:41;94852.25;;;22.01;45.70
21182;BME280;10749;46.296;7.524;2023-07-22T01:35:07;94847.22;;;22.10;45.75
21182;BME280;10749;46.296;7.524;2023-07-22T01:37:35;94841.53;;;22.06;45.82
21182;BME280;10749;46.296;7.524;2023-07-22T01:40:00;94838.19;;;21.99;46.00
21182;BME280;10749;46.296;7.524;2023-07-22T01:42:26;94843.44;;;21.89;46.26
21182;BME280;10749;46.296;7.524;2023-07-22T01:44:52;94849.81;;;21.83;46.15
21182;BME280;10749;46.296;7.524;2023-07-22T01:47:18;94848.19;;;21.82;46.29
21182;BME280;10749;46.296;7.524;2023-07-22T01:49:44;94851.94;;;21.81;46.04
21182;BME280;10749;46.296;7.524;2023-07-22T01:52:10;94843.28;;;21.79;46.34
21182;BME280;10749;46.296;7.524;2023-07-22T01:54:35;94842.53;;;21.84;46.40
21182;BME280;10749;46.296;7.524;2023-07-22T01:57:00;94840.66;;;21.84;46.59
21182;BME280;10749;46.296;7.524;2023-07-22T01:59:26;94838.41;;;21.76;47.00
21182;BME280;10749;46.296;7.524;2023-07-22T02:01:51;94840.59;;;21.79;46.62
21182;BME280;10749;46.296;7.524;2023-07-22T02:04:16;94840.84;;;21.78;46.77
21182;BME280;10749;46.296;7.524;2023-07-22T02:06:42;94839.97;;;21.72;46.74
21182;BME280;10749;46.296;7.524;2023-07-22T02:09:07;94839.38;;;21.70;46.86
21182;BME280;10749;46.296;7.524;2023-07-22T02:11:37;94844.28;;;21.73;46.55
21182;BME280;10749;46.296;7.524;2023-07-22T02:14:02;94838.91;;;21.73;46.53
21182;BME280;10749;46.296;7.524;2023-07-22T02:16:34;94838.25;;;21.66;47.05
21182;BME280;10749;46.296;7.524;2023-07-22T02:19:00;94834.41;;;21.62;47.37
21182;BME280;10749;46.296;7.524;2023-07-22T02:21:25;94831.72;;;21.62;47.22
21182;BME280;10749;46.296;7.524;2023-07-22T02:23:50;94829.94;;;21.68;46.37
21182;BME280;10749;46.296;7.524;2023-07-22T02:26:16;94836.06;;;21.63;45.84
21182;BME280;10749;46.296;7.524;2023-07-22T02:28:41;94828.09;;;21.51;46.75
21182;BME280;10749;46.296;7.524;2023-07-22T02:31:08;94825.06;;;21.48;47.16
21182;BME280;10749;46.296;7.524;2023-07-22T02:33:33;94829.97;;;21.51;47.22
21182;BME280;10749;46.296;7.524;2023-07-22T02:35:59;94830.53;;;21.53;47.04
21182;BME280;10749;46.296;7.524;2023-07-22T02:38:24;94831.75;;;21.45;47.52
21182;BME280;10749;46.296;7.524;2023-07-22T02:40:49;94831.13;;;21.38;47.14
21182;BME280;10749;46.296;7.524;2023-07-22T02:43:14;94836.50;;;21.38;46.70
21182;BME280;10749;46.296;7.524;2023-07-22T02:45:40;94836.69;;;21.32;46.90
21182;BME280;10749;46.296;7.524;2023-07-22T02:48:06;94828.84;;;21.30;46.95
21182;BME280;10749;46.296;7.524;2023-07-22T02:50:31;94837.16;;;21.29;46.85
21182;BME280;10749;46.296;7.524;2023-07-22T02:52:56;94837.56;;;21.21;47.32
21182;BME280;10749;46.296;7.524;2023-07-22T02:55:21;94843.03;;;21.26;47.64
21182;BME280;10749;46.296;7.524;2023-07-22T02:57:48;94832.91;;;21.33;47.60
21182;BME280;10749;46.296;7.524;2023-07-22T03:00:16;94828.69;;;21.37;48.18
21182;BME280;10749;46.296;7.524;2023-07-22T03:02:54;94833.91;;;21.43;48.32
21182;BME280;10749;46.296;7.524;2023-07-22T03:05:29;94838.38;;;21.38;47.94
21182;BME280;10749;46.296;7.524;2023-07-22T03:07:55;94838.28;;;21.33;47.98
21182;BME280;10749;46.296;7.524;2023-07-22T03:10:21;94830.63;;;21.25;48.26
21182;BME280;10749;46.296;7.524;2023-07-22T03:12:47;94838.16;;;21.23;48.18
21182;BME280;10749;46.296;7.524;2023-07-22T03:15:12;94843.53;;;21.23;48.22
21182;BME280;10749;46.296;7.524;2023-07-22T03:17:39;94846.72;;;21.20;48.49
21182;BME280;10749;46.296;7.524;2023-07-22T03:20:07;94844.25;;;21.18;48.24
21182;BME280;10749;46.296;7.524;2023-07-22T03:22:39;94842.72;;;21.22;48.59
21182;BME280;10749;46.296;7.524;2023-07-22T03:25:05;94854.31;;;21.23;48.30
21182;BME280;10749;46.296;7.524;2023-07-22T03:27:34;94861.59;;;21.10;48.49
21182;BME280;10749;46.296;7.524;2023-07-22T03:29:59;94853.06;;;21.13;48.22
21182;BME280;10749;46.296;7.524;2023-07-22T03:32:25;94853.53;;;21.10;48.63
21182;BME280;10749;46.296;7.524;2023-07-22T03:34:50;94848.75;;;21.12;48.80
21182;BME280;10749;46.296;7.524;2023-07-22T03:37:15;94861.84;;;21.09;48.30
21182;BME280;10749;46.296;7.524;2023-07-22T03:39:40;94851.66;;;21.11;48.48
21182;BME280;10749;46.296;7.524;2023-07-22T03:42:06;94863.09;;;21.18;49.09
21182;BME280;10749;46.296;7.524;2023-07-22T03:44:31;94859.03;;;21.15;49.03
21182;BME280;10749;46.296;7.524;2023-07-22T03:46:56;94881.50;;;21.09;49.11
21182;BME280;10749;46.296;7.524;2023-07-22T03:49:22;94879.69;;;20.98;49.26
21182;BME280;10749;46.296;7.524;2023-07-22T03:51:47;94874.13;;;20.88;49.37
21182;BME280;10749;46.296;7.524;2023-07-22T03:54:12;94880.31;;;20.89;49.47
21182;BME280;10749;46.296;7.524;2023-07-22T03:56:40;94873.19;;;20.94;48.45
21182;BME280;10749;46.296;7.524;2023-07-22T03:59:05;94876.91;;;20.93;47.60
21182;BME280;10749;46.296;7.524;2023-07-22T04:01:31;94886.53;;;20.89;47.83
21182;BME280;10749;46.296;7.524;2023-07-22T04:03:56;94885.28;;;20.80;48.70
21182;BME280;10749;46.296;7.524;2023-07-22T04:06:21;94892.31;;;20.81;48.78
21182;BME280;10749;46.296;7.524;2023-07-22T04:08:47;94886.69;;;20.83;49.08
21182;BME280;10749;46.296;7.524;2023-07-22T04:11:12;94894.28;;;20.86;49.07
21182;BME280;10749;46.296;7.524;2023-07-22T04:13:39;94898.94;;;20.90;49.10
21182;BME280;10749;46.296;7.524;2023-07-22T04:16:04;94895.66;;;20.88;49.32
21182;BME280;10749;46.296;7.524;2023-07-22T04:18:30;94901.72;;;20.95;49.62
21182;BME280;10749;46.296;7.524;2023-07-22T04:20:59;94908.72;;;20.96;49.05
21182;BME280;10749;46.296;7.524;2023-07-22T04:23:25;94914.91;;;20.97;49.19
21182;BME280;10749;46.296;7.524;2023-07-22T04:25:51;94904.97;;;20.97;49.25
21182;BME280;10749;46.296;7.524;2023-07-22T04:28:16;94919.47;;;20.96;49.51
21182;BME280;10749;46.296;7.524;2023-07-22T04:30:42;94909.28;;;20.98;49.74
21182;BME280;10749;46.296;7.524;2023-07-22T04:33:07;94908.06;;;21.06;49.56
21182;BME280;10749;46.296;7.524;2023-07-22T04:35:38;94924.09;;;21.12;49.78
21182;BME280;10749;46.296;7.524;2023-07-22T04:38:04;94918.03;;;21.05;49.91
21182;BME280;10749;46.296;7.524;2023-07-22T04:40:30;94916.38;;;21.04;49.60
21182;BME280;10749;46.296;7.524;2023-07-22T04:42:58;94916.16;;;21.06;48.95
21182;BME280;10749;46.296;7.524;2023-07-22T04:45:23;94919.66;;;21.06;48.73
21182;BME280;10749;46.296;7.524;2023-07-22T04:47:49;94916.72;;;21.08;49.18
21182;BME280;10749;46.296;7.524;2023-07-22T04:50:16;94917.53;;;21.08;49.28
21182;BME280;10749;46.296;7.524;2023-07-22T04:52:43;94912.97;;;21.09;49.43
21182;BME280;10749;46.296;7.524;2023-07-22T04:55:09;94919.84;;;21.16;49.49
21182;BME280;10749;46.296;7.524;2023-07-22T04:57:35;94918.06;;;21.22;49.57
21182;BME280;10749;46.296;7.524;2023-07-22T05:00:04;94921.34;;;21.24;49.49
21182;BME280;10749;46.296;7.524;2023-07-22T05:02:30;94921.81;;;21.21;49.64
21182;BME280;10749;46.296;7.524;2023-07-22T05:04:56;94926.47;;;21.26;49.75
21182;BME280;10749;46.296;7.524;2023-07-22T05:07:22;94937.66;;;21.34;49.43
21182;BME280;10749;46.296;7.524;2023-07-22T05:09:48;94939.63;;;21.39;49.54
21182;BME280;10749;46.296;7.524;2023-07-22T05:12:13;94939.94;;;21.42;49.51
21182;BME280;10749;46.296;7.524;2023-07-22T05:14:38;94945.97;;;21.49;49.25
21182;BME280;10749;46.296;7.524;2023-07-22T05:17:04;94935.47;;;21.48;49.63
21182;BME280;10749;46.296;7.524;2023-07-22T05:19:29;94939.63;;;21.39;49.66
21182;BME280;10749;46.296;7.524;2023-07-22T05:21:54;94937.84;;;21.28;50.15
21182;BME280;10749;46.296;7.524;2023-07-22T05:24:20;94943.22;;;21.28;49.98
21182;BME280;10749;46.296;7.524;2023-07-22T05:26:46;94937.84;;;21.28;49.47
21182;BME280;10749;46.296;7.524;2023-07-22T05:29:11;94937.34;;;21.31;49.98
21182;BME280;10749;46.296;7.524;2023-07-22T05:31:37;94940.13;;;21.36;49.61
21182;BME280;10749;46.296;7.524;2023-07-22T05:34:02;94942.91;;;21.41;49.78
21182;BME280;10749;46.296;7.524;2023-07-22T05:36:29;94942.09;;;21.40;49.93
21182;BME280;10749;46.296;7.524;2023-07-22T05:38:54;94942.63;;;21.42;50.10
21182;BME280;10749;46.296;7.524;2023-07-22T05:41:20;94944.50;;;21.42;50.06
21182;BME280;10749;46.296;7.524;2023-07-22T05:43:45;94936.38;;;21.37;50.34
21182;BME280;10749;46.296;7.524;2023-07-22T05:46:10;94942.53;;;21.37;50.04
21182;BME280;10749;46.296;7.524;2023-07-22T05:48:36;94947.69;;;21.39;50.55
21182;BME280;10749;46.296;7.524;2023-07-22T05:51:01;94938.66;;;21.45;49.76
21182;BME280;10749;46.296;7.524;2023-07-22T05:53:27;94948.34;;;21.46;49.83
21182;BME280;10749;46.296;7.524;2023-07-22T05:55:52;94948.13;;;21.47;50.01
21182;BME280;10749;46.296;7.524;2023-07-22T05:58:18;94944.28;;;21.43;50.14
21182;BME280;10749;46.296;7.524;2023-07-22T06:00:43;94942.91;;;21.41;50.21
21182;BME280;10749;46.296;7.524;2023-07-22T06:03:09;94937.44;;;21.52;50.01
21182;BME280;10749;46.296;7.524;2023-07-22T06:05:34;94940.22;;;21.57;50.08
21182;BME280;10749;46.296;7.524;2023-07-22T06:08:00;94938.66;;;21.61;50.04
21182;BME280;10749;46.296;7.524;2023-07-22T06:10:25;94935.69;;;21.63;50.50
21182;BME280;10749;46.296;7.524;2023-07-22T06:12:50;94930.97;;;21.70;50.00
21182;BME280;10749;46.296;7.524;2023-07-22T06:15:15;94944.50;;;21.75;49.79
21182;BME280;10749;46.296;7.524;2023-07-22T06:17:41;94940.75;;;21.76;50.30
21182;BME280;10749;46.296;7.524;2023-07-22T06:20:07;94936.59;;;21.85;50.08
21182;BME280;10749;46.296;7.524;2023-07-22T06:22:32;94945.34;;;21.92;50.05
21182;BME280;10749;46.296;7.524;2023-07-22T06:24:58;94936.00;;;22.00;49.77
21182;BME280;10749;46.296;7.524;2023-07-22T06:27:23;94940.13;;;22.02;49.47
21182;BME280;10749;46.296;7.524;2023-07-22T06:29:48;94938.56;;;22.06;49.71
21182;BME280;10749;46.296;7.524;2023-07-22T06:32:14;94940.25;;;22.13;49.40
21182;BME280;10749;46.296;7.524;2023-07-22T06:34:39;94938.13;;;22.15;49.64
21182;BME280;10749;46.296;7.524;2023-07-22T06:37:04;94945.78;;;22.23;49.79
21182;BME280;10749;46.296;7.524;2023-07-22T06:39:30;94942.66;;;22.31;49.68
21182;BME280;10749;46.296;7.524;2023-07-22T06:41:55;94954.56;;;22.35;49.10
21182;BME280;10749;46.296;7.524;2023-07-22T06:44:21;94950.00;;;22.35;49.42
21182;BME280;10749;46.296;7.524;2023-07-22T06:46:46;94947.41;;;22.45;49.18
21182;BME280;10749;46.296;7.524;2023-07-22T06:49:11;94955.56;;;22.50;49.00
21182;BME280;10749;46.296;7.524;2023-07-22T06:51:37;94956.47;;;22.56;48.97
21182;BME280;10749;46.296;7.524;2023-07-22T06:54:03;94952.44;;;22.59;49.05
21182;BME280;10749;46.296;7.524;2023-07-22T06:56:28;94946.38;;;22.68;49.47
21182;BME280;10749;46.296;7.524;2023-07-22T06:58:53;94945.94;;;22.76;48.84
21182;BME280;10749;46.296;7.524;2023-07-22T07:01:19;94952.41;;;22.75;48.91
21182;BME280;10749;46.296;7.524;2023-07-22T07:03:47;94954.59;;;22.78;48.92
21182;BME280;10749;46.296;7.524;2023-07-22T07:06:12;94957.47;;;22.93;49.11
21182;BME280;10749;46.296;7.524;2023-07-22T07:08:37;94950.75;;;22.96;49.01
21182;BME280;10749;46.296;7.524;2023-07-22T07:11:03;94958.09;;;23.00;48.62
21182;BME280;10749;46.296;7.524;2023-07-22T07:13:28;94958.69;;;23.08;48.69
21182;BME280;10749;46.296;7.524;2023-07-22T07:15:54;94952.44;;;23.02;48.45
21182;BME280;10749;46.296;7.524;2023-07-22T07:18:19;94961.31;;;22.97;48.11
21182;BME280;10749;46.296;7.524;2023-07-22T07:20:45;94957.72;;;22.92;47.96
21182;BME280;10749;46.296;7.524;2023-07-22T07:23:11;94964.56;;;22.78;47.86
21182;BME280;10749;46.296;7.524;2023-07-22T07:25:36;94964.25;;;22.74;48.26
21182;BME280;10749;46.296;7.524;2023-07-22T07:28:03;94959.84;;;22.68;48.10
21182;BME280;10749;46.296;7.524;2023-07-22T07:30:28;94957.25;;;22.73;48.23
21182;BME280;10749;46.296;7.524;2023-07-22T07:32:53;94968.06;;;22.78;48.07
21182;BME280;10749;46.296;7.524;2023-07-22T07:35:18;94960.56;;;22.80;48.11
21182;BME280;10749;46.296;7.524;2023-07-22T07:37:44;94964.47;;;22.94;47.98
21182;BME280;10749;46.296;7.524;2023-07-22T07:40:10;94959.75;;;23.07;48.17
21182;BME280;10749;46.296;7.524;2023-07-22T07:42:35;94970.59;;;23.12;47.87
21182;BME280;10749;46.296;7.524;2023-07-22T07:45:00;94967.16;;;23.16;48.15
21182;BME280;10749;46.296;7.524;2023-07-22T07:47:26;94965.84;;;23.19;47.57
21182;BME280;10749;46.296;7.524;2023-07-22T07:49:51;94967.84;;;23.07;47.49
21182;BME280;10749;46.296;7.524;2023-07-22T07:52:16;94971.69;;;23.11;48.07
21182;BME280;10749;46.296;7.524;2023-07-22T07:54:42;94968.50;;;23.14;47.95
21182;BME280;10749;46.296;7.524;2023-07-22T07:57:07;94964.75;;;23.20;47.68
21182;BME280;10749;46.296;7.524;2023-07-22T07:59:32;94955.13;;;23.29;47.77
21182;BME280;10749;46.296;7.524;2023-07-22T08:01:58;94961.19;;;23.41;47.56
21182;BME280;10749;46.296;7.524;2023-07-22T08:04:23;94949.94;;;23.49;47.45
21182;BME280;10749;46.296;7.524;2023-07-22T08:06:48;94950.34;;;23.63;47.77
21182;BME280;10749;46.296;7.524;2023-07-22T08:09:14;94946.91;;;23.77;47.54
21182;BME280;10749;46.296;7.524;2023-07-22T08:11:44;94947.69;;;23.68;47.38
21182;BME280;10749;46.296;7.524;2023-07-22T08:14:09;94945.53;;;23.70;47.26
21182;BME280;10749;46.296;7.524;2023-07-22T08:16:37;94946.88;;;23.67;46.97
21182;BME280;10749;46.296;7.524;2023-07-22T08:19:03;94942.47;;;23.61;47.13
21182;BME280;10749;46.296;7.524;2023-07-22T08:21:29;94950.03;;;23.59;47.14
21182;BME280;10749;46.296;7.524;2023-07-22T08:23:54;94945.41;;;23.55;47.11
21182;BME280;10749;46.296;7.524;2023-07-22T08:26:20;94946.28;;;23.60;47.08
21182;BME280;10749;46.296;7.524;2023-07-22T08:28:58;94952.91;;;23.48;46.96
21182;BME280;10749;46.296;7.524;2023-07-22T08:31:24;94948.81;;;23.45;46.92
21182;BME280;10749;46.296;7.524;2023-07-22T08:33:49;94952.69;;;23.54;46.68
21182;BME280;10749;46.296;7.524;2023-07-22T08:36:14;94945.75;;;23.63;46.78
21182;BME280;10749;46.296;7.524;2023-07-22T08:38:40;94938.66;;;23.57;46.77
21182;BME280;10749;46.296;7.524;2023-07-22T08:41:06;94937.00;;;23.51;46.82
21182;BME280;10749;46.296;7.524;2023-07-22T08:43:33;94942.28;;;23.41;46.55
21182;BME280;10749;46.296;7.524;2023-07-22T08:46:00;94938.66;;;23.52;46.72
21182;BME280;10749;46.296;7.524;2023-07-22T08:48:26;94939.28;;;23.69;46.91
21182;BME280;10749;46.296;7.524;2023-07-22T08:51:07;94937.84;;;23.88;47.03
21182;BME280;10749;46.296;7.524;2023-07-22T08:53:35;94942.19;;;23.95;46.45
21182;BME280;10749;46.296;7.524;2023-07-22T08:56:01;94938.72;;;23.99;46.64
21182;BME280;10749;46.296;7.524;2023-07-22T08:58:26;94935.19;;;23.99;46.58
21182;BME280;10749;46.296;7.524;2023-07-22T09:00:56;94924.94;;;24.01;46.44
21182;BME280;10749;46.296;7.524;2023-07-22T09:03:24;94926.34;;;24.08;46.26
21182;BME280;10749;46.296;7.524;2023-07-22T09:05:50;94934.81;;;24.17;46.12
21182;BME280;10749;46.296;7.524;2023-07-22T09:08:15;94930.81;;;24.29;46.07
21182;BME280;10749;46.296;7.524;2023-07-22T09:10:43;94929.25;;;24.39;46.21
21182;BME280;10749;46.296;7.524;2023-07-22T09:13:09;94925.22;;;24.46;46.16
21182;BME280;10749;46.296;7.524;2023-07-22T09:15:35;94929.31;;;24.54;46.03
21182;BME280;10749;46.296;7.524;2023-07-22T09:18:04;94911.50;;;24.63;45.93
21182;BME280;10749;46.296;7.524;2023-07-22T09:20:30;94913.91;;;24.64;45.75
21182;BME280;10749;46.296;7.524;2023-07-22T09:22:56;94915.53;;;24.65;45.92
21182;BME280;10749;46.296;7.524;2023-07-22T09:25:23;94919.31;;;24.64;45.52
21182;BME280;10749;46.296;7.524;2023-07-22T09:27:53;94905.81;;;24.59;45.29
21182;BME280;10749;46.296;7.524;2023-07-22T09:30:23;94896.59;;;24.60;45.16
21182;BME280;10749;46.296;7.524;2023-07-22T09:32:50;94891.72;;;24.57;44.95
21182;BME280;10749;46.296;7.524;2023-07-22T09:35:16;94896.31;;;24.57;44.78
21182;BME280;10749;46.296;7.524;2023-07-22T09:37:41;94894.72;;;24.66;44.93
21182;BME280;10749;46.296;7.524;2023-07-22T09:40:19;94893.66;;;24.72;44.63
21182;BME280;10749;46.296;7.524;2023-07-22T09:42:49;94898.25;;;24.76;44.55
21182;BME280;10749;46.296;7.524;2023-07-22T09:45:15;94894.00;;;24.86;44.88
21182;BME280;10749;46.296;7.524;2023-07-22T09:47:46;94892.94;;;24.92;44.47
21182;BME280;10749;46.296;7.524;2023-07-22T09:50:19;94877.78;;;24.96;44.68
21182;BME280;10749;46.296;7.524;2023-07-22T09:52:51;94884.84;;;25.07;44.66
21182;BME280;10749;46.296;7.524;2023-07-22T09:55:19;94888.91;;;25.09;44.05
21182;BME280;10749;46.296;7.524;2023-07-22T09:57:59;94884.31;;;25.20;44.32
21182;BME280;10749;46.296;7.524;2023-07-22T10:00:28;94877.25;;;25.09;43.81
21182;BME280;10749;46.296;7.524;2023-07-22T10:02:57;94879.97;;;25.19;44.16
21182;BME280;10749;46.296;7.524;2023-07-22T10:05:24;94879.19;;;25.28;44.08
21182;BME280;10749;46.296;7.524;2023-07-22T10:07:51;94870.22;;;25.28;43.42
21182;BME280;10749;46.296;7.524;2023-07-22T10:10:25;94868.06;;;25.40;44.16
21182;BME280;10749;46.296;7.524;2023-07-22T10:12:51;94861.03;;;25.49;43.96
21182;BME280;10749;46.296;7.524;2023-07-22T10:15:18;94862.66;;;25.50;43.54
21182;BME280;10749;46.296;7.524;2023-07-22T10:17:44;94855.34;;;25.56;43.82
21182;BME280;10749;46.296;7.524;2023-07-22T10:20:11;94861.59;;;25.56;43.64
21182;BME280;10749;46.296;7.524;2023-07-22T10:22:41;94852.63;;;25.61;43.54
21182;BME280;10749;46.296;7.524;2023-07-22T10:25:07;94854.00;;;25.58;43.03
21182;BME280;10749;46.296;7.524;2023-07-22T10:27:34;94839.91;;;25.71;43.19
21182;BME280;10749;46.296;7.524;2023-07-22T10:30:01;94836.34;;;25.76;43.24
21182;BME280;10749;46.296;7.524;2023-07-22T10:32:40;94839.06;;;25.86;43.17
21182;BME280;10749;46.296;7.524;2023-07-22T10:35:11;94824.69;;;25.91;43.15
21182;BME280;10749;46.296;7.524;2023-07-22T10:37:38;94830.06;;;26.01;43.10
21182;BME280;10749;46.296;7.524;2023-07-22T10:40:23;94837.09;;;26.12;42.92
21182;BME280;10749;46.296;7.524;2023-07-22T10:42:53;94824.59;;;26.16;42.48
21182;BME280;10749;46.296;7.524;2023-07-22T10:45:26;94815.91;;;26.19;42.62
21182;BME280;10749;46.296;7.524;2023-07-22T10:48:12;94815.31;;;26.37;42.13
21182;BME280;10749;46.296;7.524;2023-07-22T10:50:42;94815.25;;;26.47;42.90
21182;BME280;10749;46.296;7.524;2023-07-22T11:09:05;94788.81;;;27.12;40.23
21182;BME280;10749;46.296;7.524;2023-07-22T11:11:39;94789.34;;;27.14;40.02
21182;BME280;10749;46.296;7.524;2023-07-22T11:14:15;94789.03;;;27.21;39.95
21182;BME280;10749;46.296;7.524;2023-07-22T11:16:42;94774.63;;;27.20;39.39
21182;BME280;10749;46.296;7.524;2023-07-22T11:19:08;94776.19;;;27.26;39.83
21182;BME280;10749;46.296;7.524;2023-07-22T11:21:33;94783.69;;;27.39;39.79
21182;BME280;10749;46.296;7.524;2023-07-22T11:23:58;94777.16;;;27.40;40.01
21182;BME280;10749;46.296;7.524;2023-07-22T11:26:23;94779.28;;;27.48;39.70
21182;BME280;10749;46.296;7.524;2023-07-22T11:28:49;94772.38;;;27.61;39.14
21182;BME280;10749;46.296;7.524;2023-07-22T11:31:14;94777.13;;;27.74;39.59
21182;BME280;10749;46.296;7.524;2023-07-22T11:33:40;94777.88;;;27.80;39.43
21182;BME280;10749;46.296;7.524;2023-07-22T11:36:08;94775.06;;;27.90;39.02
21182;BME280;10749;46.296;7.524;2023-07-22T11:38:34;94777.19;;;27.93;39.13
21182;BME280;10749;46.296;7.524;2023-07-22T11:40:59;94761.09;;;27.96;38.82
21182;BME280;10749;46.296;7.524;2023-07-22T11:43:24;94766.19;;;28.03;38.85
21182;BME280;10749;46.296;7.524;2023-07-22T11:45:51;94765.50;;;28.16;38.50
21182;BME280;10749;46.296;7.524;2023-07-22T11:48:16;94752.88;;;28.25;38.47
21182;BME280;10749;46.296;7.524;2023-07-22T11:50:42;94751.78;;;28.26;38.29
21182;BME280;10749;46.296;7.524;2023-07-22T11:53:08;94746.34;;;28.26;37.71
21182;BME280;10749;46.296;7.524;2023-07-22T11:55:35;94750.22;;;28.20;37.80
21182;BME280;10749;46.296;7.524;2023-07-22T11:58:01;94746.34;;;28.26;37.98
21182;BME280;10749;46.296;7.524;2023-07-22T12:00:26;94739.00;;;28.45;37.94
21182;BME280;10749;46.296;7.524;2023-07-22T12:02:51;94749.16;;;28.59;37.82
21182;BME280;10749;46.296;7.524;2023-07-22T12:05:22;94735.94;;;28.71;37.07
21182;BME280;10749;46.296;7.524;2023-07-22T12:07:47;94731.38;;;28.85;37.67
21182;BME280;10749;46.296;7.524;2023-07-22T12:10:12;94739.16;;;28.92;37.21
21182;BME280;10749;46.296;7.524;2023-07-22T12:12:47;94735.06;;;29.08;37.14
21182;BME280;10749;46.296;7.524;2023-07-22T12:15:21;94734.38;;;29.02;37.09
21182;BME280;10749;46.296;7.524;2023-07-22T12:17:52;94726.97;;;29.21;36.92
21182;BME280;10749;46.296;7.524;2023-07-22T12:20:18;94722.69;;;29.34;37.20
21182;BME280;10749;46.296;7.524;2023-07-22T12:22:44;94717.56;;;29.46;37.07
21182;BME280;10749;46.296;7.524;2023-07-22T12:25:09;94714.94;;;29.55;36.98
21182;BME280;10749;46.296;7.524;2023-07-22T12:27:36;94704.75;;;29.60;36.76
21182;BME280;10749;46.296;7.524;2023-07-22T12:30:01;94714.25;;;29.63;36.30
21182;BME280;10749;46.296;7.524;2023-07-22T12:32:28;94714.44;;;29.66;35.82
21182;BME280;10749;46.296;7.524;2023-07-22T12:34:56;94703.94;;;29.60;35.35
21182;BME280;10749;46.296;7.524;2023-07-22T12:37:22;94700.81;;;29.66;35.55
21182;BME280;10749;46.296;7.524;2023-07-22T12:39:48;94699.72;;;29.81;35.31
21182;BME280;10749;46.296;7.524;2023-07-22T12:42:15;94700.16;;;29.88;35.86
21182;BME280;10749;46.296;7.524;2023-07-22T12:44:41;94692.06;;;29.97;35.46
21182;BME280;10749;46.296;7.524;2023-07-22T12:47:07;94695.06;;;30.09;35.36
21182;BME280;10749;46.296;7.524;2023-07-22T12:49:33;94693.66;;;30.11;34.83
21182;BME280;10749;46.296;7.524;2023-07-22T12:51:58;94694.66;;;30.15;34.70
21182;BME280;10749;46.296;7.524;2023-07-22T12:54:29;94695.66;;;30.19;34.00
21182;BME280;10749;46.296;7.524;2023-07-22T12:56:54;94676.06;;;30.17;33.45
21182;BME280;10749;46.296;7.524;2023-07-22T12:59:19;94670.91;;;30.16;32.52
21182;BME280;10749;46.296;7.524;2023-07-22T13:01:44;94680.78;;;30.25;33.44
21182;BME280;10749;46.296;7.524;2023-07-22T13:04:10;94677.34;;;30.34;33.54
21182;BME280;10749;46.296;7.524;2023-07-22T13:06:35;94669.34;;;30.37;32.62
21182;BME280;10749;46.296;7.524;2023-07-22T13:09:03;94672.25;;;30.41;33.02
21182;BME280;10749;46.296;7.524;2023-07-22T13:11:28;94677.03;;;30.49;32.65
21182;BME280;10749;46.296;7.524;2023-07-22T13:13:53;94680.44;;;30.54;31.71
21182;BME280;10749;46.296;7.524;2023-07-22T13:16:19;94677.72;;;30.54;32.25